Observation data for Jayton on 04/16/2018      Previous  Date       Current Mesonet Observations  Soil Data  Daily Summary Page  Observations in Plain Language
KJTS 160505Z 16007KT 12/M10 A3015 RMK A01 T01171095  RH  022%=      5-min Rain = 0
KJTS 160510Z 16006KT 12/M10 A3014 RMK A01 T01161095  RH  022%=      5-min Rain = 0
KJTS 160515Z 15006KT 11/M10 A3014 RMK A01 T01141095  RH  022%=      5-min Rain = 0
KJTS 160520Z 16006KT 11/M09 A3014 RMK A01 T01121094  RH  023%=      5-min Rain = 0
KJTS 160525Z 15007KT 11/M09 A3014 RMK A01 T01121093  RH  023%=      5-min Rain = 0
KJTS 160530Z 16007KT 11/M09 A3014 RMK A01 T01131093  RH  023%=      5-min Rain = 0
KJTS 160535Z 15007KT 11/M09 A3014 RMK A01 T01141092  RH  023%=      5-min Rain = 0
KJTS 160540Z 16009KT 12/M09 A3014 RMK A01 T01161092  RH  022%=      5-min Rain = 0
KJTS 160545Z 16009KT 12/M09 A3014 RMK A01 T01171092  RH  022%=      5-min Rain = 0
KJTS 160550Z 15008KT 12/M09 A3014 RMK A01 T01151091  RH  023%=      5-min Rain = 0
KJTS 160555Z 15007KT 11/M09 A3014 RMK A01 T01111091  RH  023%=      5-min Rain = 0
KJTS 160600Z 15008KT 11/M09 A3014 RMK A01 T01091091  RH  024%=      5-min Rain = 0
KJTS 160605Z 15008KT 11/M09 A3014 RMK A01 T01111091  RH  023%=      5-min Rain = 0
KJTS 160610Z 16007KT 11/M09 A3014 RMK A01 T01111091  RH  023%=      5-min Rain = 0
KJTS 160615Z 16006KT 11/M09 A3014 RMK A01 T01081091  RH  024%=      5-min Rain = 0
KJTS 160620Z 16006KT 10/M09 A3014 RMK A01 T01041091  RH  024%=      5-min Rain = 0
KJTS 160625Z 16007KT 10/M09 A3014 RMK A01 T01021091  RH  025%=      5-min Rain = 0
KJTS 160630Z 16007KT 10/M09 A3014 RMK A01 T01021091  RH  025%=      5-min Rain = 0
KJTS 160635Z 15006KT 10/M09 A3014 RMK A01 T01011091  RH  025%=      5-min Rain = 0
KJTS 160640Z 15006KT 10/M09 A3014 RMK A01 T01001090  RH  025%=      5-min Rain = 0
KJTS 160645Z 15006KT 10/M09 A3014 RMK A01 T01011090  RH  025%=      5-min Rain = 0
KJTS 160650Z 15007KT 10/M09 A3014 RMK A01 T01001090  RH  025%=      5-min Rain = 0
KJTS 160655Z 15007KT 10/M09 A3014 RMK A01 T01001089  RH  025%=      5-min Rain = 0
KJTS 160700Z 15007KT 10/M09 A3014 RMK A01 T01001088  RH  026%=      5-min Rain = 0
KJTS 160705Z 16008KT 10/M09 A3014 RMK A01 T01021085  RH  026%=      5-min Rain = 0
KJTS 160710Z 15007KT 11/M08 A3014 RMK A01 T01051083  RH  026%=      5-min Rain = 0
KJTS 160715Z 15007KT 11/M08 A3014 RMK A01 T01051082  RH  026%=      5-min Rain = 0
KJTS 160720Z 14007KT 11/M08 A3014 RMK A01 T01051081  RH  026%=      5-min Rain = 0
KJTS 160725Z 14007KT 10/M08 A3014 RMK A01 T01031080  RH  027%=      5-min Rain = 0
KJTS 160730Z 14007KT 10/M08 A3014 RMK A01 T01021080  RH  027%=      5-min Rain = 0
KJTS 160735Z 14007KT 10/M08 A3014 RMK A01 T01031079  RH  027%=      5-min Rain = 0
KJTS 160740Z 14007KT 10/M08 A3014 RMK A01 T01031079  RH  027%=      5-min Rain = 0
KJTS 160745Z 14007KT 10/M08 A3014 RMK A01 T01021079  RH  027%=      5-min Rain = 0
KJTS 160750Z 14007KT 10/M08 A3014 RMK A01 T01001079  RH  027%=      5-min Rain = 0
KJTS 160755Z 15006KT 10/M08 A3014 RMK A01 T01001079  RH  027%=      5-min Rain = 0
KJTS 160800Z 15007KT 10/M08 A3014 RMK A01 T01001079  RH  027%=      5-min Rain = 0
KJTS 160805Z 16008KT 10/M08 A3014 RMK A01 T01031079  RH  027%=      5-min Rain = 0
KJTS 160810Z 15008KT 11/M08 A3014 RMK A01 T01071078  RH  026%=      5-min Rain = 0
KJTS 160815Z 16007KT 11/M08 A3014 RMK A01 T01071078  RH  026%=      5-min Rain = 0
KJTS 160820Z 16006KT 11/M08 A3014 RMK A01 T01061078  RH  027%=      5-min Rain = 0
KJTS 160825Z 16006KT 10/M08 A3014 RMK A01 T01021078  RH  027%=      5-min Rain = 0
KJTS 160830Z 17006KT 10/M08 A3014 RMK A01 T01001078  RH  028%=      5-min Rain = 0
KJTS 160835Z 17005KT 10/M08 A3014 RMK A01 T00971078  RH  028%=      5-min Rain = 0
KJTS 160840Z 18004KT 09/M08 A3014 RMK A01 T00941079  RH  029%=      5-min Rain = 0
KJTS 160845Z 18004KT 09/M08 A3014 RMK A01 T00911079  RH  029%=      5-min Rain = 0
KJTS 160850Z 18003KT 09/M08 A3014 RMK A01 T00891080  RH  029%=      5-min Rain = 0
KJTS 160855Z 21003KT 09/M08 A3014 RMK A01 T00871080  RH  030%=      5-min Rain = 0
KJTS 160900Z 20003KT 09/M08 A3014 RMK A01 T00861080  RH  030%=      5-min Rain = 0
KJTS 160905Z 22003KT 08/M08 A3014 RMK A01 T00831080  RH  030%=      5-min Rain = 0
KJTS 160910Z 22003KT 08/M08 A3014 RMK A01 T00821080  RH  031%=      5-min Rain = 0
KJTS 160915Z 23003KT 08/M08 A3014 RMK A01 T00841079  RH  031%=      5-min Rain = 0
KJTS 160920Z 23004KT 09/M08 A3014 RMK A01 T00881079  RH  030%=      5-min Rain = 0
KJTS 160925Z 23004KT 09/M08 A3014 RMK A01 T00871079  RH  030%=      5-min Rain = 0
KJTS 160930Z 24004KT 08/M08 A3014 RMK A01 T00801078  RH  032%=      5-min Rain = 0
KJTS 160935Z 23004KT 08/M08 A3014 RMK A01 T00801079  RH  032%=      5-min Rain = 0
KJTS 160940Z 22004KT 08/M08 A3014 RMK A01 T00821080  RH  031%=      5-min Rain = 0
KJTS 160945Z 22005KT 09/M08 A3014 RMK A01 T00851080  RH  030%=      5-min Rain = 0
KJTS 160950Z 22005KT 09/M08 A3014 RMK A01 T00941079  RH  029%=      5-min Rain = 0
KJTS 160955Z 22005KT 10/M08 A3014 RMK A01 T00971079  RH  028%=      5-min Rain = 0
KJTS 161000Z 22006KT 10/M08 A3014 RMK A01 T00961079  RH  028%=      5-min Rain = 0
KJTS 161005Z 22005KT 10/M08 A3014 RMK A01 T00961078  RH  029%=      5-min Rain = 0
KJTS 161010Z 23005KT 10/M08 A3014 RMK A01 T00961077  RH  029%=      5-min Rain = 0
KJTS 161015Z 23004KT 10/M08 A3014 RMK A01 T00961078  RH  029%=      5-min Rain = 0
KJTS 161020Z 24004KT 10/M08 A3014 RMK A01 T00951079  RH  028%=      5-min Rain = 0
KJTS 161025Z 24004KT 09/M08 A3014 RMK A01 T00941079  RH  029%=      5-min Rain = 0
KJTS 161030Z 24004KT 09/M08 A3014 RMK A01 T00911079  RH  029%=      5-min Rain = 0
KJTS 161035Z 23004KT 09/M08 A3014 RMK A01 T00871079  RH  030%=      5-min Rain = 0
KJTS 161040Z 23005KT 09/M08 A3014 RMK A01 T00871079  RH  030%=      5-min Rain = 0
KJTS 161045Z 23004KT 09/M08 A3014 RMK A01 T00881079  RH  030%=      5-min Rain = 0
KJTS 161050Z 22005KT 09/M08 A3014 RMK A01 T00891078  RH  030%=      5-min Rain = 0
KJTS 161055Z 22004KT 09/M08 A3014 RMK A01 T00891077  RH  030%=      5-min Rain = 0
KJTS 161100Z 22004KT 09/M08 A3014 RMK A01 T00891077  RH  030%=      5-min Rain = 0
KJTS 161105Z 22003KT 09/M08 A3014 RMK A01 T00891076  RH  030%=      5-min Rain = 0
KJTS 161110Z 22002KT 09/M08 A3014 RMK A01 T00881076  RH  030%=      5-min Rain = 0
KJTS 161115Z 22002KT 09/M08 A3014 RMK A01 T00891075  RH  031%=      5-min Rain = 0
KJTS 161120Z 22001KT 09/M08 A3014 RMK A01 T00921075  RH  030%=      5-min Rain = 0
KJTS 161125Z 22000KT 09/M08 A3013 RMK A01 T00931075  RH  030%=      5-min Rain = 0
KJTS 161130Z 00000KT 09/M08 A3013 RMK A01 T00931076  RH  030%=      5-min Rain = 0
KJTS 161135Z 17000KT 09/M07 A3013 RMK A01 T00941074  RH  030%=      5-min Rain = 0
KJTS 161140Z 16001KT 09/M07 A3013 RMK A01 T00911074  RH  030%=      5-min Rain = 0
KJTS 161145Z 14001KT 09/M07 A3013 RMK A01 T00871074  RH  031%=      5-min Rain = 0
KJTS 161150Z 13002KT 08/M07 A3013 RMK A01 T00831074  RH  032%=      5-min Rain = 0
KJTS 161155Z 12003KT 09/M07 A3013 RMK A01 T00861072  RH  032%=      5-min Rain = 0
KJTS 161200Z 12003KT 09/M07 A3013 RMK A01 T00901072  RH  031%=      5-min Rain = 0
KJTS 161205Z 12003KT 09/M07 A3013 RMK A01 T00851073  RH  032%=      5-min Rain = 0
KJTS 161210Z 13004KT 08/M07 A3013 RMK A01 T00811072  RH  033%=      5-min Rain = 0
KJTS 161215Z 13005KT 08/M07 A3013 RMK A01 T00751071  RH  035%=      5-min Rain = 0
KJTS 161220Z 13005KT 08/M07 A3013 RMK A01 T00781068  RH  035%=      5-min Rain = 0
KJTS 161225Z 13006KT 08/M07 A3013 RMK A01 T00801066  RH  035%=      5-min Rain = 0
KJTS 161230Z 13006KT 08/M06 A3013 RMK A01 T00771063  RH  036%=      5-min Rain = 0
KJTS 161235Z 13006KT 07/M06 A3013 RMK A01 T00731061  RH  038%=      5-min Rain = 0
KJTS 161240Z 13005KT 08/M06 A3013 RMK A01 T00751057  RH  039%=      5-min Rain = 0
KJTS 161245Z 13005KT 08/M06 A3013 RMK A01 T00791055  RH  038%=      5-min Rain = 0
KJTS 161250Z 13005KT 09/M05 A3013 RMK A01 T00851054  RH  037%=      5-min Rain = 0
KJTS 161255Z 14005KT 10/M06 A3013 RMK A01 T00951057  RH  034%=      5-min Rain = 0
KJTS 161300Z 15005KT 10/M06 A3013 RMK A01 T01021055  RH  033%=      5-min Rain = 0
KJTS 161305Z 14005KT 11/M05 A3013 RMK A01 T01081054  RH  032%=      5-min Rain = 0
KJTS 161310Z 13005KT 11/M05 A3013 RMK A01 T01121052  RH  031%=      5-min Rain = 0
KJTS 161315Z 13006KT 12/M05 A3013 RMK A01 T01161048  RH  031%=      5-min Rain = 0
KJTS 161320Z 14006KT 12/M04 A3013 RMK A01 T01211044  RH  031%=      5-min Rain = 0
KJTS 161325Z 14006KT 13/M04 A3013 RMK A01 T01261040  RH  031%=      5-min Rain = 0
KJTS 161330Z 15007KT 13/M04 A3013 RMK A01 T01301038  RH  031%=      5-min Rain = 0
KJTS 161335Z 15006KT 13/M04 A3013 RMK A01 T01321037  RH  031%=      5-min Rain = 0
KJTS 161340Z 14007KT 13/M04 A3013 RMK A01 T01341035  RH  031%=      5-min Rain = 0
KJTS 161345Z 15006KT 14/M03 A3013 RMK A01 T01381032  RH  031%=      5-min Rain = 0
KJTS 161350Z 15008KT 14/M03 A3013 RMK A01 T01421027  RH  031%=      5-min Rain = 0
KJTS 161355Z 15006KT 15/M03 A3013 RMK A01 T01461025  RH  031%=      5-min Rain = 0
KJTS 161400Z 16008KT 15/M02 A3014 RMK A01 T01491023  RH  031%=      5-min Rain = 0
KJTS 161405Z 17006KT 15/M02 A3014 RMK A01 T01491023  RH  031%=      5-min Rain = 0
KJTS 161410Z 17007KT 15/M02 A3014 RMK A01 T01511022  RH  030%=      5-min Rain = 0
KJTS 161415Z 16007KT 15/M02 A3014 RMK A01 T01521022  RH  030%=      5-min Rain = 0
KJTS 161420Z 17008KT 15/M02 A3014 RMK A01 T01541021  RH  030%=      5-min Rain = 0
KJTS 161425Z 18008KT 16/M02 A3013 RMK A01 T01561021  RH  030%=      5-min Rain = 0
KJTS 161430Z 18008KT 16/M02 A3013 RMK A01 T01581021  RH  030%=      5-min Rain = 0
KJTS 161435Z 18008KT 16/M02 A3013 RMK A01 T01631019  RH  029%=      5-min Rain = 0
KJTS 161440Z 19010KT 17/M02 A3013 RMK A01 T01671017  RH  029%=      5-min Rain = 0
KJTS 161445Z 19010KT 17/M02 A3013 RMK A01 T01701015  RH  029%=      5-min Rain = 0
KJTS 161450Z 20008KT 18/M02 A3013 RMK A01 T01761015  RH  028%=      5-min Rain = 0
KJTS 161455Z 20010KT 18/M01 A3013 RMK A01 T01801014  RH  027%=      5-min Rain = 0
KJTS 161500Z 21011G17KT 18/M01 A3012 RMK A01 T01841012  RH  027%=      5-min Rain = 0
KJTS 161505Z 20010KT 19/M01 A3012 RMK A01 T01891011  RH  026%=      5-min Rain = 0
KJTS 161510Z 20013KT 19/M01 A3012 RMK A01 T01921009  RH  026%=      5-min Rain = 0
KJTS 161515Z 20014KT 20/M01 A3012 RMK A01 T01951009  RH  026%=      5-min Rain = 0
KJTS 161520Z 19012G17KT 20/M01 A3012 RMK A01 T01971009  RH  025%=      5-min Rain = 0
KJTS 161525Z 19011G16KT 20/M01 A3012 RMK A01 T01991008  RH  025%=      5-min Rain = 0
KJTS 161530Z 19014G20KT 20/M01 A3011 RMK A01 T02041007  RH  025%=      5-min Rain = 0
KJTS 161535Z 19013G19KT 21/M01 A3011 RMK A01 T02091005  RH  024%=      5-min Rain = 0
KJTS 161540Z 19013G18KT 22/M01 A3011 RMK A01 T02151005  RH  023%=      5-min Rain = 0
KJTS 161545Z 20014G20KT 22/M01 A301 RMK A01 T02211005  RH  022%=      5-min Rain = 0
KJTS 161550Z 20014G22KT 22/M01 A301 RMK A01 T02231005  RH  022%=      5-min Rain = 0
KJTS 161555Z 20014G19KT 23/M01 A301 RMK A01 T02261005  RH  022%=      5-min Rain = 0
KJTS 161600Z 20016G21KT 23/M01 A3009 RMK A01 T02251006  RH  022%=      5-min Rain = 0
KJTS 161605Z 19016G23KT 23/M01 A3009 RMK A01 T02271007  RH  021%=      5-min Rain = 0
KJTS 161610Z 20013G21KT 23/M01 A3009 RMK A01 T02301006  RH  021%=      5-min Rain = 0
KJTS 161615Z 20015G21KT 24/M01 A3009 RMK A01 T02351010  RH  020%=      5-min Rain = 0
KJTS 161620Z 20016G21KT 24/M01 A3009 RMK A01 T02361010  RH  020%=      5-min Rain = 0
KJTS 161625Z 19015G22KT 24/M01 A3009 RMK A01 T02391011  RH  019%=      5-min Rain = 0
KJTS 161630Z 19017G22KT 24/M01 A3009 RMK A01 T02381012  RH  019%=      5-min Rain = 0
KJTS 161635Z 20013G20KT 24/M01 A3008 RMK A01 T02421012  RH  019%=      5-min Rain = 0
KJTS 161640Z 19014G20KT 25/M01 A3008 RMK A01 T02461014  RH  018%=      5-min Rain = 0
KJTS 161645Z 18014G20KT 25/M01 A3008 RMK A01 T02461014  RH  018%=      5-min Rain = 0
KJTS 161650Z 19012KT 25/M01 A3008 RMK A01 T02481014  RH  018%=      5-min Rain = 0
KJTS 161655Z 21012KT 25/M02 A3008 RMK A01 T02531015  RH  017%=      5-min Rain = 0
KJTS 161700Z 18012G18KT 26/M02 A3008 RMK A01 T02561018  RH  016%=      5-min Rain = 0
KJTS 161705Z 18014G19KT 25/M02 A3008 RMK A01 T02541017  RH  017%=      5-min Rain = 0
KJTS 161710Z 18013G19KT 25/M02 A3007 RMK A01 T02511016  RH  017%=      5-min Rain = 0
KJTS 161715Z 18013G18KT 26/M02 A3007 RMK A01 T02591018  RH  016%=      5-min Rain = 0
KJTS 161720Z 18014G20KT 26/M02 A3006 RMK A01 T02641021  RH  015%=      5-min Rain = 0
KJTS 161725Z 19012G19KT 26/M02 A3006 RMK A01 T02621019  RH  016%=      5-min Rain = 0
KJTS 161730Z 20014G19KT 27/M02 A3006 RMK A01 T02651023  RH  015%=      5-min Rain = 0
KJTS 161735Z 20012G18KT 27/M02 A3005 RMK A01 T02691024  RH  015%=      5-min Rain = 0
KJTS 161740Z 20016G22KT 27/M03 A3005 RMK A01 T02691026  RH  014%=      5-min Rain = 0
KJTS 161745Z 19014G19KT 27/M03 A3005 RMK A01 T02661028  RH  014%=      5-min Rain = 0
KJTS 161750Z 20015G21KT 27/M03 A3004 RMK A01 T02691029  RH  014%=      5-min Rain = 0
KJTS 161755Z 21013G20KT 27/M03 A3004 RMK A01 T02741026  RH  014%=      5-min Rain = 0
KJTS 161800Z 19013G19KT 28/M03 A3003 RMK A01 T02801025  RH  014%=      5-min Rain = 0
KJTS 161805Z 20013G21KT 28/M02 A3003 RMK A01 T02801024  RH  014%=      5-min Rain = 0
KJTS 161810Z 17013G18KT 28/M02 A3003 RMK A01 T02841022  RH  014%=      5-min Rain = 0
KJTS 161815Z 18013G19KT 29/M03 A3002 RMK A01 T02861026  RH  013%=      5-min Rain = 0
KJTS 161820Z 18015G22KT 29/M03 A3002 RMK A01 T02861027  RH  013%=      5-min Rain = 0
KJTS 161825Z 20013G21KT 29/M03 A3001 RMK A01 T02911030  RH  012%=      5-min Rain = 0
KJTS 161830Z 19016G23KT 29/M03 A3001 RMK A01 T02911028  RH  012%=      5-min Rain = 0
KJTS 161835Z 20013G23KT 30/M03 A3001 RMK A01 T02961028  RH  012%=      5-min Rain = 0
KJTS 161840Z 19015G29KT 30/M03 A30 RMK A01 T02991030  RH  012%=      5-min Rain = 0
KJTS 161845Z 19015G24KT 29/M03 A30 RMK A01 T02941033  RH  012%=      5-min Rain = 0
KJTS 161850Z 18015G27KT 30/M03 A2999 RMK A01 T02981030  RH  012%=      5-min Rain = 0
KJTS 161855Z 18015G25KT 30/M03 A2999 RMK A01 T02991033  RH  011%=      5-min Rain = 0
KJTS 161900Z 18015G21KT 30/M04 A2999 RMK A01 T03011040  RH  011%=      5-min Rain = 0
KJTS 161905Z 19016G29KT 31/M04 A2998 RMK A01 T03061043  RH  010%=      5-min Rain = 0
KJTS 161910Z 18015G22KT 31/M04 A2998 RMK A01 T03071043  RH  010%=      5-min Rain = 0
KJTS 161915Z 19016G21KT 31/M04 A2998 RMK A01 T03091044  RH  010%=      5-min Rain = 0
KJTS 161920Z 19017G27KT 31/M05 A2998 RMK A01 T03091045  RH  010%=      5-min Rain = 0
KJTS 161925Z 19016G24KT 31/M04 A2997 RMK A01 T03111044  RH  010%=      5-min Rain = 0
KJTS 161930Z 19016G26KT 31/M05 A2997 RMK A01 T03131046  RH  010%=      5-min Rain = 0
KJTS 161935Z 20018G27KT 32/M05 A2996 RMK A01 T03181047  RH  009%=      5-min Rain = 0
KJTS 161940Z 19018G27KT 32/M05 A2996 RMK A01 T03161052  RH  009%=      5-min Rain = 0
KJTS 161945Z 20017G25KT 32/M06 A2996 RMK A01 T03171057  RH  009%=      5-min Rain = 0
KJTS 161950Z 19016G23KT 32/M06 A2995 RMK A01 T03181061  RH  008%=      5-min Rain = 0
KJTS 161955Z 21016G21KT 32/M06 A2995 RMK A01 T03211058  RH  008%=      5-min Rain = 0
KJTS 162000Z 20018G28KT 32/M06 A2994 RMK A01 T03191057  RH  008%=      5-min Rain = 0
KJTS 162005Z 22016G24KT 32/M06 A2994 RMK A01 T03191059  RH  008%=      5-min Rain = 0
KJTS 162010Z 21016G22KT 32/M06 A2994 RMK A01 T03151056  RH  009%=      5-min Rain = 0
KJTS 162015Z 20017G23KT 32/M06 A2994 RMK A01 T03211055  RH  009%=      5-min Rain = 0
KJTS 162020Z 20016G23KT 32/M06 A2993 RMK A01 T03201058  RH  008%=      5-min Rain = 0
KJTS 162025Z 20014G20KT 32/M06 A2993 RMK A01 T03221057  RH  008%=      5-min Rain = 0
KJTS 162030Z 19017G25KT 33/M06 A2993 RMK A01 T03271061  RH  008%=      5-min Rain = 0
KJTS 162035Z 19017G26KT 33/M07 A2993 RMK A01 T03271065  RH  008%=      5-min Rain = 0
KJTS 162040Z 20017G23KT 33/M07 A2992 RMK A01 T03291065  RH  008%=      5-min Rain = 0
KJTS 162045Z 20019G25KT 33/M07 A2992 RMK A01 T03261065  RH  008%=      5-min Rain = 0
KJTS 162050Z 20015G24KT 33/M06 A2992 RMK A01 T03261063  RH  008%=      5-min Rain = 0
KJTS 162055Z 20014G22KT 33/M06 A2991 RMK A01 T03311063  RH  008%=      5-min Rain = 0
KJTS 162100Z 19017G26KT 34/M07 A2991 RMK A01 T03371072  RH  007%=      5-min Rain = 0
KJTS 162105Z 20015G21KT 34/M07 A2991 RMK A01 T03351069  RH  007%=      5-min Rain = 0
KJTS 162110Z 22018G24KT 34/M07 A299 RMK A01 T03351068  RH  007%=      5-min Rain = 0
KJTS 162115Z 22021G26KT 33/M07 A299 RMK A01 T03301072  RH  007%=      5-min Rain = 0
KJTS 162120Z 21019G28KT 33/M07 A299 RMK A01 T03291069  RH  007%=      5-min Rain = 0
KJTS 162125Z 21019G24KT 33/M07 A299 RMK A01 T03281067  RH  007%=      5-min Rain = 0
KJTS 162130Z 19017G26KT 33/M07 A2989 RMK A01 T03261067  RH  008%=      5-min Rain = 0
KJTS 162135Z 20015G24KT 33/M07 A2989 RMK A01 T03271071  RH  007%=      5-min Rain = 0
KJTS 162140Z 21017G23KT 33/M07 A2989 RMK A01 T03321073  RH  007%=      5-min Rain = 0
KJTS 162145Z 22016G22KT 33/M07 A2988 RMK A01 T03311071  RH  007%=      5-min Rain = 0
KJTS 162150Z 21015G21KT 34/M07 A2988 RMK A01 T03351067  RH  007%=      5-min Rain = 0
KJTS 162155Z 21014G23KT 34/M07 A2988 RMK A01 T03371065  RH  007%=      5-min Rain = 0
KJTS 162200Z 22018G24KT 33/M07 A2987 RMK A01 T03341074  RH  007%=      5-min Rain = 0
KJTS 162205Z 21018G25KT 33/M08 A2987 RMK A01 T03321075  RH  007%=      5-min Rain = 0
KJTS 162210Z 21017G23KT 33/M07 A2987 RMK A01 T03311072  RH  007%=      5-min Rain = 0
KJTS 162215Z 20017G25KT 33/M07 A2987 RMK A01 T03311072  RH  007%=      5-min Rain = 0
KJTS 162220Z 20018G27KT 33/M07 A2987 RMK A01 T03311071  RH  007%=      5-min Rain = 0
KJTS 162225Z 20016G24KT 33/M07 A2987 RMK A01 T03251074  RH  007%=      5-min Rain = 0
KJTS 162230Z 20016G21KT 32/M07 A2987 RMK A01 T03241071  RH  007%=      5-min Rain = 0
KJTS 162235Z 20015G20KT 33/M07 A2987 RMK A01 T03251073  RH  007%=      5-min Rain = 0
KJTS 162240Z 21014G19KT 33/M07 A2987 RMK A01 T03271074  RH  007%=      5-min Rain = 0
KJTS 162245Z 20017G22KT 33/M07 A2986 RMK A01 T03331074  RH  007%=      5-min Rain = 0
KJTS 162250Z 20017G25KT 33/M07 A2986 RMK A01 T03341072  RH  007%=      5-min Rain = 0
KJTS 162255Z 19021KT 33/M07 A2986 RMK A01 T03331072  RH  007%=      5-min Rain = 0
KJTS 162300Z 19020G27KT 33/M07 A2986 RMK A01 T03301072  RH  007%=      5-min Rain = 0
KJTS 162305Z 20020G26KT 33/M07 A2986 RMK A01 T03301072  RH  007%=      5-min Rain = 0
KJTS 162310Z 21020G26KT 33/M07 A2986 RMK A01 T03281074  RH  007%=      5-min Rain = 0
KJTS 162315Z 20015G24KT 33/M07 A2986 RMK A01 T03281074  RH  007%=      5-min Rain = 0
KJTS 162320Z 21017G22KT 33/M08 A2986 RMK A01 T03271077  RH  007%=      5-min Rain = 0
KJTS 162325Z 21017G23KT 33/M07 A2986 RMK A01 T03261073  RH  007%=      5-min Rain = 0
KJTS 162330Z 20016G24KT 33/M07 A2985 RMK A01 T03271068  RH  007%=      5-min Rain = 0
KJTS 162335Z 19016G23KT 33/M07 A2985 RMK A01 T03271069  RH  007%=      5-min Rain = 0
KJTS 162340Z 20016G24KT 33/M07 A2985 RMK A01 T03271070  RH  007%=      5-min Rain = 0
KJTS 162345Z 20017G24KT 33/M07 A2985 RMK A01 T03261072  RH  007%=      5-min Rain = 0
KJTS 162350Z 20018G24KT 32/M07 A2985 RMK A01 T03241072  RH  007%=      5-min Rain = 0
KJTS 162355Z 20018G24KT 32/M07 A2985 RMK A01 T03231071  RH  007%=      5-min Rain = 0
KJTS 170000Z 20018G27KT 32/M07 A2985 RMK A01 T03221073  RH  007%=      5-min Rain = 0
KJTS 170005Z 20016G22KT 32/M07 A2985 RMK A01 T03211073  RH  007%=      5-min Rain = 0
KJTS 170010Z 20016G22KT 32/M07 A2985 RMK A01 T03211073  RH  007%=      5-min Rain = 0
KJTS 170015Z 20016KT 32/M07 A2985 RMK A01 T03191073  RH  007%=      5-min Rain = 0
KJTS 170020Z 19017G22KT 32/M07 A2985 RMK A01 T03171074  RH  008%=      5-min Rain = 0
KJTS 170025Z 19016G21KT 31/M07 A2985 RMK A01 T03141074  RH  008%=      5-min Rain = 0
KJTS 170030Z 19017KT 31/M07 A2985 RMK A01 T03121074  RH  008%=      5-min Rain = 0
KJTS 170035Z 20015G21KT 31/M08 A2985 RMK A01 T03111075  RH  008%=      5-min Rain = 0
KJTS 170040Z 20018G23KT 31/M08 A2985 RMK A01 T03091075  RH  008%=      5-min Rain = 0
KJTS 170045Z 19014G20KT 31/M07 A2985 RMK A01 T03051074  RH  008%=      5-min Rain = 0
KJTS 170050Z 19014KT 30/M07 A2985 RMK A01 T03021074  RH  008%=      5-min Rain = 0
KJTS 170055Z 19014G21KT 30/M07 A2985 RMK A01 T02991073  RH  008%=      5-min Rain = 0
KJTS 170100Z 19011KT 30/M07 A2985 RMK A01 T02951074  RH  009%=      5-min Rain = 0
KJTS 170105Z 19011KT 29/M07 A2985 RMK A01 T02911074  RH  009%=      5-min Rain = 0
KJTS 170110Z 19011KT 29/M07 A2985 RMK A01 T02871074  RH  009%=      5-min Rain = 0
KJTS 170115Z 19013G18KT 29/M07 A2985 RMK A01 T02881072  RH  009%=      5-min Rain = 0
KJTS 170120Z 19013KT 29/M07 A2986 RMK A01 T02891071  RH  009%=      5-min Rain = 0
KJTS 170125Z 19012KT 29/M07 A2986 RMK A01 T02871070  RH  009%=      5-min Rain = 0
KJTS 170130Z 19011KT 28/M07 A2986 RMK A01 T02821070  RH  009%=      5-min Rain = 0
KJTS 170135Z 19010KT 28/M07 A2986 RMK A01 T02751071  RH  010%=      5-min Rain = 0
KJTS 170140Z 18011KT 27/M07 A2986 RMK A01 T02701071  RH  010%=      5-min Rain = 0
KJTS 170145Z 18010KT 27/M07 A2986 RMK A01 T02671071  RH  010%=      5-min Rain = 0
KJTS 170150Z 18010KT 27/M07 A2986 RMK A01 T02651070  RH  010%=      5-min Rain = 0
KJTS 170155Z 18010KT 27/M07 A2986 RMK A01 T02661070  RH  010%=      5-min Rain = 0
KJTS 170200Z 17008KT 26/M07 A2986 RMK A01 T02641069  RH  011%=      5-min Rain = 0
KJTS 170205Z 17008KT 26/M07 A2986 RMK A01 T02611069  RH  011%=      5-min Rain = 0
KJTS 170210Z 17008KT 26/M07 A2986 RMK A01 T02581069  RH  011%=      5-min Rain = 0
KJTS 170215Z 17009KT 26/M07 A2987 RMK A01 T02561068  RH  011%=      5-min Rain = 0
KJTS 170220Z 17009G14KT 25/M07 A2986 RMK A01 T02541066  RH  012%=      5-min Rain = 0
KJTS 170225Z 17009G14KT 25/M06 A2987 RMK A01 T02541064  RH  012%=      5-min Rain = 0
KJTS 170230Z 17010KT 26/M06 A2987 RMK A01 T02551063  RH  012%=      5-min Rain = 0
KJTS 170235Z 17009KT 25/M06 A2987 RMK A01 T02541062  RH  012%=      5-min Rain = 0
KJTS 170240Z 17009KT 25/M06 A2987 RMK A01 T02521062  RH  012%=      5-min Rain = 0
KJTS 170245Z 17009KT 25/M06 A2987 RMK A01 T02491063  RH  012%=      5-min Rain = 0
KJTS 170250Z 17009KT 25/M06 A2987 RMK A01 T02471063  RH  012%=      5-min Rain = 0
KJTS 170255Z 17009KT 25/M06 A2987 RMK A01 T02461063  RH  012%=      5-min Rain = 0
KJTS 170300Z 17009KT 24/M06 A2987 RMK A01 T02441063  RH  013%=      5-min Rain = 0
KJTS 170305Z 17009KT 24/M06 A2988 RMK A01 T02441062  RH  013%=      5-min Rain = 0
KJTS 170310Z 18009KT 24/M06 A2988 RMK A01 T02431062  RH  013%=      5-min Rain = 0
KJTS 170315Z 17009KT 24/M06 A2988 RMK A01 T02431061  RH  013%=      5-min Rain = 0
KJTS 170320Z 18010KT 24/M06 A2988 RMK A01 T02431060  RH  013%=      5-min Rain = 0
KJTS 170325Z 18010KT 24/M06 A2988 RMK A01 T02431059  RH  013%=      5-min Rain = 0
KJTS 170330Z 18010KT 24/M06 A2988 RMK A01 T02431058  RH  013%=      5-min Rain = 0
KJTS 170335Z 17010KT 24/M06 A2988 RMK A01 T02411057  RH  013%=      5-min Rain = 0
KJTS 170340Z 17010KT 24/M06 A2988 RMK A01 T02401056  RH  014%=      5-min Rain = 0
KJTS 170345Z 17009G14KT 24/M06 A2988 RMK A01 T02391055  RH  014%=      5-min Rain = 0
KJTS 170350Z 18010KT 24/M05 A2988 RMK A01 T02371054  RH  014%=      5-min Rain = 0
KJTS 170355Z 18010KT 24/M05 A2988 RMK A01 T02361052  RH  014%=      5-min Rain = 0
KJTS 170400Z 18010KT 24/M05 A2988 RMK A01 T02351051  RH  015%=      5-min Rain = 0
KJTS 170405Z 18011KT 24/M05 A2989 RMK A01 T02351047  RH  015%=      5-min Rain = 0
KJTS 170410Z 18011KT 24/M04 A2989 RMK A01 T02351044  RH  015%=      5-min Rain = 0
KJTS 170415Z 18011G16KT 24/M04 A2989 RMK A01 T02361041  RH  016%=      5-min Rain = 0
KJTS 170420Z 18011G16KT 24/M04 A2989 RMK A01 T02351038  RH  016%=      5-min Rain = 0
KJTS 170425Z 18010KT 24/M04 A2988 RMK A01 T02361037  RH  016%=      5-min Rain = 0
KJTS 170430Z 18009KT 23/M04 A2988 RMK A01 T02341035  RH  016%=      5-min Rain = 0
KJTS 170435Z 17008KT 23/M03 A2988 RMK A01 T02321034  RH  017%=      5-min Rain = 0
KJTS 170440Z 18008KT 23/M03 A2988 RMK A01 T02291033  RH  017%=      5-min Rain = 0
KJTS 170445Z 18008KT 23/M03 A2988 RMK A01 T02271032  RH  018%=      5-min Rain = 0
KJTS 170450Z 17007KT 23/M03 A2988 RMK A01 T02251031  RH  018%=      5-min Rain = 0
KJTS 170455Z 17007KT 22/M03 A2988 RMK A01 T02241030  RH  018%=      5-min Rain = 0
KJTS 170500Z 18008KT 22/M03 A2988 RMK A01 T02221030  RH  018%=      5-min Rain = 0

Page generated in 0.0171 seconds.